createdAt,value
2023-04-09T00:02:15.593Z,29.77
2023-04-09T00:04:42.241Z,31.00
2023-04-09T00:07:08.704Z,30.23
2023-04-09T00:09:35.594Z,29.35
2023-04-09T00:12:02.119Z,30.10
2023-04-09T00:14:28.589Z,30.35
2023-04-09T00:16:55.364Z,31.60
2023-04-09T00:19:21.791Z,29.45
2023-04-09T00:21:48.486Z,29.92
2023-04-09T00:24:15.348Z,30.90
2023-04-09T00:26:41.861Z,30.52
2023-04-09T00:29:08.341Z,30.25
2023-04-09T00:31:35.026Z,31.75
2023-04-09T00:34:01.631Z,29.17
2023-04-09T00:36:28.104Z,31.85
2023-04-09T00:38:54.793Z,32.85
2023-04-09T00:41:21.417Z,31.33
2023-04-09T00:43:47.903Z,31.33
2023-04-09T00:46:14.698Z,31.15
2023-04-09T00:48:41.679Z,31.38
2023-04-09T00:51:08.293Z,31.55
2023-04-09T00:53:35.143Z,32.22
2023-04-09T00:56:02.827Z,33.45
2023-04-09T00:58:29.361Z,34.78
2023-04-09T01:00:56.071Z,32.13
2023-04-09T01:03:22.914Z,31.77
2023-04-09T01:09:48.259Z,31.65
2023-04-09T01:12:32.802Z,31.48
2023-04-09T01:15:05.697Z,31.55
2023-04-09T01:17:44.474Z,33.00
2023-04-09T01:20:22.920Z,32.25
2023-04-09T01:23:01.243Z,31.63
2023-04-09T01:25:42.623Z,30.55
2023-04-09T01:28:19.621Z,32.15
2023-04-09T01:30:50.648Z,31.58
2023-04-09T01:33:19.827Z,31.65
2023-04-09T01:35:48.659Z,31.35
2023-04-09T01:38:18.318Z,30.92
2023-04-09T01:40:45.446Z,33.45
2023-04-09T01:43:13.450Z,33.25
2023-04-09T01:45:40.940Z,31.45
2023-04-09T01:48:08.098Z,31.45
2023-04-09T01:50:35.605Z,30.73
2023-04-09T01:53:02.843Z,31.10
2023-04-09T01:55:29.417Z,31.58
2023-04-09T01:57:55.960Z,30.15
2023-04-09T02:00:23.808Z,27.80
2023-04-09T02:03:08.141Z,30.20
2023-04-09T02:05:41.522Z,30.15
2023-04-09T02:08:12.586Z,29.35
2023-04-09T02:10:40.652Z,21.35
2023-04-09T02:13:12.142Z,29.52
2023-04-09T02:15:40.346Z,29.77
2023-04-09T02:18:21.452Z,30.42
2023-04-09T02:20:47.939Z,30.10
2023-04-09T02:23:16.524Z,30.95
2023-04-09T02:25:44.378Z,31.05
2023-04-09T02:28:11.075Z,32.90
2023-04-09T02:30:37.553Z,31.65
2023-04-09T02:33:04.312Z,33.25
2023-04-09T02:35:30.813Z,32.33
2023-04-09T02:37:57.425Z,31.05
2023-04-09T02:40:23.934Z,31.70
2023-04-09T02:42:54.492Z,33.42
2023-04-09T02:45:21.013Z,22.60
2023-04-09T02:47:47.504Z,32.33
2023-04-09T02:50:14.027Z,34.80
2023-04-09T02:52:40.677Z,32.53
2023-04-09T02:55:08.245Z,32.10
2023-04-09T02:57:34.675Z,33.80
2023-04-09T03:00:01.085Z,33.03
2023-04-09T03:02:27.737Z,32.70
2023-04-09T03:04:54.321Z,34.25
2023-04-09T03:07:20.845Z,33.83
2023-04-09T03:09:47.303Z,34.00
2023-04-09T03:12:13.768Z,34.15
2023-04-09T03:14:40.223Z,35.88
2023-04-09T03:17:06.664Z,34.63
2023-04-09T03:19:33.118Z,35.20
2023-04-09T03:21:59.556Z,36.15
2023-04-09T03:24:26.156Z,34.20
2023-04-09T03:26:52.639Z,34.80
2023-04-09T03:29:19.351Z,33.85
2023-04-09T03:31:45.772Z,34.83
2023-04-09T03:34:12.320Z,33.78
2023-04-09T03:36:38.756Z,33.00
2023-04-09T03:39:05.325Z,34.00
2023-04-09T03:41:32.021Z,35.35
2023-04-09T03:43:58.463Z,35.15
2023-04-09T03:46:25.220Z,32.75
2023-04-09T03:48:52.046Z,33.53
2023-04-09T03:51:18.952Z,34.00
2023-04-09T03:53:45.430Z,33.17
2023-04-09T03:56:11.836Z,33.90
2023-04-09T03:58:38.305Z,34.28
2023-04-09T04:01:04.868Z,31.98
2023-04-09T04:03:31.897Z,32.08
2023-04-09T04:06:03.076Z,34.67
2023-04-09T04:08:29.877Z,33.33
2023-04-09T04:10:56.501Z,30.52
2023-04-09T04:13:23.087Z,32.58
2023-04-09T04:15:49.659Z,31.95
2023-04-09T04:18:16.122Z,31.35
2023-04-09T04:20:42.554Z,32.38
2023-04-09T04:23:09.044Z,31.88
2023-04-09T04:25:35.681Z,33.05
2023-04-09T04:28:02.276Z,33.13
2023-04-09T04:30:28.820Z,33.35
2023-04-09T04:32:55.374Z,31.50
2023-04-09T04:35:21.949Z,33.85
2023-04-09T04:37:51.375Z,31.95
2023-04-09T04:40:18.040Z,32.58
2023-04-09T04:42:44.593Z,32.05
2023-04-09T04:45:11.292Z,32.25
2023-04-09T04:47:37.801Z,30.90
2023-04-09T04:50:04.898Z,33.53
2023-04-09T04:52:31.349Z,30.50
2023-04-09T04:54:58.514Z,31.40
2023-04-09T04:57:25.071Z,31.50
2023-04-09T04:59:51.541Z,32.35
2023-04-09T05:02:18.035Z,30.58
2023-04-09T05:04:44.558Z,30.20
2023-04-09T05:07:11.014Z,31.40
2023-04-09T05:09:37.438Z,30.42
2023-04-09T05:12:04.018Z,31.30
2023-04-09T05:14:30.525Z,31.10
2023-04-09T05:16:57.176Z,32.70
2023-04-09T05:19:23.676Z,32.30
2023-04-09T05:21:50.293Z,32.00
2023-04-09T05:24:17.041Z,34.40
2023-04-09T05:26:43.479Z,36.17
2023-04-09T05:29:09.970Z,35.08
2023-04-09T05:31:36.430Z,35.67
2023-04-09T05:34:02.858Z,37.40
2023-04-09T05:36:29.293Z,34.88
2023-04-09T05:38:55.981Z,35.42
2023-04-09T05:41:22.540Z,36.10
2023-04-09T05:43:48.993Z,38.78
2023-04-09T05:46:15.475Z,39.13
2023-04-09T05:48:41.894Z,41.13
2023-04-09T05:51:09.617Z,42.22
2023-04-09T05:53:36.115Z,42.80
2023-04-09T05:56:02.605Z,43.92
2023-04-09T05:58:29.650Z,44.05
2023-04-09T06:00:56.185Z,46.63
2023-04-09T06:03:22.808Z,47.67
2023-04-09T06:05:50.521Z,47.80
2023-04-09T06:08:17.245Z,46.67
2023-04-09T06:10:43.684Z,46.63
2023-04-09T06:13:10.417Z,47.90
2023-04-09T06:15:38.716Z,48.15
2023-04-09T06:18:05.213Z,48.58
2023-04-09T06:20:31.752Z,48.45
2023-04-09T06:22:58.553Z,47.65
2023-04-09T06:25:25.256Z,47.75
2023-04-09T06:27:52.449Z,51.90
2023-04-09T06:30:18.925Z,46.83
2023-04-09T06:32:54.530Z,46.17
2023-04-09T06:35:22.098Z,47.40
2023-04-09T06:37:48.589Z,46.47
2023-04-09T06:40:15.550Z,45.55
2023-04-09T06:42:41.991Z,46.15
2023-04-09T06:45:09.014Z,46.88
2023-04-09T06:47:36.239Z,48.47
2023-04-09T06:50:03.150Z,45.90
2023-04-09T06:52:29.664Z,44.53
2023-04-09T06:54:56.116Z,43.22
2023-04-09T06:57:22.584Z,42.55
2023-04-09T06:59:49.127Z,41.53
2023-04-09T07:02:15.760Z,41.47
2023-04-09T07:04:42.563Z,41.75
2023-04-09T07:07:09.144Z,41.67
2023-04-09T07:09:35.907Z,42.20
2023-04-09T07:12:02.410Z,39.78
2023-04-09T07:14:28.990Z,38.78
2023-04-09T07:16:55.546Z,35.72
2023-04-09T07:19:22.000Z,36.35
2023-04-09T07:21:48.430Z,35.72
2023-04-09T07:24:14.993Z,34.92
2023-04-09T07:26:41.514Z,34.78
2023-04-09T07:29:08.078Z,32.70
2023-04-09T07:31:35.876Z,33.70
2023-04-09T07:34:02.672Z,32.95
2023-04-09T07:36:29.172Z,34.72
2023-04-09T07:38:55.689Z,32.42
2023-04-09T07:41:22.247Z,32.83
2023-04-09T07:43:48.717Z,32.38
2023-04-09T07:46:21.960Z,32.17
2023-04-09T07:48:50.155Z,31.23
2023-04-09T07:51:16.888Z,31.42
2023-04-09T07:53:43.348Z,31.15
2023-04-09T07:56:09.864Z,31.00
2023-04-09T07:58:37.902Z,31.25
2023-04-09T08:01:04.730Z,30.35
2023-04-09T08:03:31.543Z,30.77
2023-04-09T08:05:58.253Z,32.80
2023-04-09T08:08:24.670Z,30.80
2023-04-09T08:10:51.606Z,31.02
2023-04-09T08:13:18.008Z,33.50
2023-04-09T08:15:44.574Z,32.72
2023-04-09T08:18:11.096Z,33.17
2023-04-09T08:20:37.879Z,32.60
2023-04-09T08:23:04.410Z,32.72
2023-04-09T08:25:30.941Z,34.85
2023-04-09T08:27:58.118Z,34.20
2023-04-09T08:30:24.642Z,32.00
2023-04-09T08:32:51.230Z,30.65
2023-04-09T08:35:17.811Z,31.45
2023-04-09T08:37:44.381Z,29.23
2023-04-09T08:40:11.740Z,30.92
2023-04-09T08:42:47.768Z,30.05
2023-04-09T08:45:14.359Z,30.15
2023-04-09T08:47:43.605Z,29.40
2023-04-09T08:50:10.771Z,30.40
2023-04-09T08:52:38.157Z,30.52
2023-04-09T08:55:05.170Z,29.98
2023-04-09T08:57:37.560Z,33.42
2023-04-09T09:00:05.016Z,33.20
2023-04-09T09:02:31.840Z,35.75
2023-04-09T09:05:00.888Z,30.58
2023-04-09T09:07:31.366Z,28.98
2023-04-09T09:10:04.894Z,28.73
2023-04-09T09:12:33.046Z,27.20
2023-04-09T09:14:59.785Z,27.23
2023-04-09T09:17:26.568Z,26.17
2023-04-09T09:19:53.312Z,26.02
2023-04-09T09:22:19.796Z,25.65
2023-04-09T09:24:51.198Z,26.80
2023-04-09T09:27:36.685Z,27.00
2023-04-09T09:30:05.663Z,28.02
2023-04-09T09:32:35.701Z,27.08
2023-04-09T09:35:06.790Z,28.65
2023-04-09T09:37:34.227Z,26.73
2023-04-09T09:40:01.447Z,26.67
2023-04-09T09:42:29.379Z,27.02
2023-04-09T09:44:56.460Z,27.58
2023-04-09T09:47:23.658Z,28.77
2023-04-09T09:49:51.442Z,26.63
2023-04-09T09:52:24.231Z,26.35
2023-04-09T09:54:53.331Z,25.70
2023-04-09T09:57:22.260Z,27.02
2023-04-09T09:59:56.131Z,27.27
2023-04-09T10:02:26.783Z,27.58
2023-04-09T10:04:53.845Z,27.33
2023-04-09T10:07:22.336Z,26.30
2023-04-09T10:09:54.186Z,27.23
2023-04-09T10:12:23.879Z,26.23
2023-04-09T10:14:52.878Z,24.63
2023-04-09T10:17:20.893Z,26.73
2023-04-09T10:20:01.187Z,27.40
2023-04-09T10:22:32.062Z,26.35
2023-04-09T10:25:00.003Z,27.98
2023-04-09T10:27:28.561Z,27.83
2023-04-09T10:29:55.107Z,28.13
2023-04-09T10:32:26.508Z,28.98
2023-04-09T10:34:57.268Z,28.63
2023-04-09T10:37:28.013Z,27.75
2023-04-09T10:39:54.804Z,28.10
2023-04-09T10:42:27.369Z,29.65
2023-04-09T10:45:11.595Z,27.92
2023-04-09T10:47:40.795Z,27.85
2023-04-09T10:50:27.946Z,28.95
2023-04-09T10:53:00.806Z,27.75
2023-04-09T10:55:41.239Z,27.45
2023-04-09T10:58:13.528Z,28.13
2023-04-09T11:00:42.673Z,28.10
2023-04-09T11:03:09.389Z,27.20
2023-04-09T11:05:40.498Z,26.00
2023-04-09T11:08:09.776Z,26.92
2023-04-09T11:10:37.765Z,27.15
2023-04-09T11:13:04.883Z,25.33
2023-04-09T11:15:34.359Z,26.17
2023-04-09T11:18:02.156Z,25.80
2023-04-09T11:20:30.697Z,24.85
2023-04-09T11:22:59.318Z,26.02
2023-04-09T11:25:36.196Z,24.55
2023-04-09T11:28:04.233Z,25.45
2023-04-09T11:30:31.236Z,24.45
2023-04-09T11:32:57.930Z,23.88
2023-04-09T11:35:25.010Z,24.38
2023-04-09T11:37:52.371Z,24.52
2023-04-09T11:40:26.556Z,23.45
2023-04-09T11:42:54.455Z,23.23
2023-04-09T11:45:24.458Z,23.85
2023-04-09T11:47:51.587Z,22.52
2023-04-09T11:50:19.555Z,21.63
2023-04-09T11:52:46.875Z,22.15
2023-04-09T11:55:23.697Z,21.67
2023-04-09T11:57:51.768Z,20.38
2023-04-09T12:00:18.318Z,20.13
2023-04-09T12:02:46.780Z,20.30
2023-04-09T12:05:22.864Z,18.50
2023-04-09T12:07:56.374Z,17.90
2023-04-09T12:10:30.674Z,17.83
2023-04-09T12:13:07.897Z,17.48
2023-04-09T12:15:36.694Z,19.08
2023-04-09T12:18:08.413Z,18.20
2023-04-09T12:20:43.587Z,18.98
2023-04-09T12:23:11.541Z,19.90
2023-04-09T12:25:40.663Z,20.42
2023-04-09T12:28:08.522Z,18.83
2023-04-09T12:30:35.634Z,19.35
2023-04-09T12:33:03.827Z,19.08
2023-04-09T12:35:30.800Z,19.55
2023-04-09T12:37:59.213Z,20.35
2023-04-09T12:40:25.702Z,18.02
2023-04-09T12:42:52.405Z,18.95
2023-04-09T12:45:19.876Z,19.30
2023-04-09T12:47:46.882Z,20.13
2023-04-09T12:50:16.346Z,18.65
2023-04-09T12:52:44.429Z,18.65
2023-04-09T12:55:11.930Z,17.55
2023-04-09T12:57:40.287Z,16.90
2023-04-09T13:00:08.012Z,17.00
2023-04-09T13:02:35.109Z,15.80
2023-04-09T13:05:02.013Z,15.45
2023-04-09T13:07:29.701Z,15.73
2023-04-09T13:09:57.251Z,15.70
2023-04-09T13:12:24.532Z,17.25
2023-04-09T13:14:53.634Z,16.83
2023-04-09T13:17:20.244Z,17.80
2023-04-09T13:19:46.804Z,17.08
2023-04-09T13:22:13.423Z,15.43
2023-04-09T13:24:40.011Z,17.38
2023-04-09T13:27:09.594Z,17.42
2023-04-09T13:29:36.281Z,17.38
2023-04-09T13:32:07.062Z,13.80
2023-04-09T13:34:35.130Z,13.07
2023-04-09T13:37:04.904Z,13.80
2023-04-09T13:39:31.446Z,12.45
2023-04-09T13:41:58.203Z,12.73
2023-04-09T13:44:25.594Z,11.23
2023-04-09T13:46:52.174Z,10.65
2023-04-09T13:49:18.690Z,10.13
2023-04-09T13:51:45.326Z,11.80
2023-04-09T13:54:11.845Z,12.95
2023-04-09T13:56:39.466Z,13.45
2023-04-09T13:59:06.399Z,14.30
2023-04-09T14:01:33.210Z,13.18
2023-04-09T14:03:59.914Z,13.32
2023-04-09T14:06:26.591Z,12.73
2023-04-09T14:08:53.542Z,11.52
2023-04-09T14:11:20.666Z,11.05
2023-04-09T14:13:47.331Z,10.90
2023-04-09T14:16:13.898Z,12.20
2023-04-09T14:18:40.357Z,11.30
2023-04-09T14:21:09.988Z,12.85
2023-04-09T14:23:37.014Z,13.88
2023-04-09T14:26:04.379Z,14.02
2023-04-09T14:28:32.219Z,12.65
2023-04-09T14:30:59.394Z,12.25
2023-04-09T14:33:26.742Z,12.13
2023-04-09T14:35:53.438Z,12.35
2023-04-09T14:38:20.111Z,11.23
2023-04-09T14:40:46.576Z,11.65
2023-04-09T14:43:13.018Z,10.65
2023-04-09T14:45:39.610Z,10.45
2023-04-09T14:48:06.382Z,11.85
2023-04-09T14:50:33.955Z,12.13
2023-04-09T14:53:00.993Z,12.45
2023-04-09T14:55:27.673Z,13.68
2023-04-09T14:57:54.139Z,12.63
2023-04-09T15:00:20.781Z,13.65
2023-04-09T15:02:47.803Z,11.57
2023-04-09T15:05:14.737Z,11.48
2023-04-09T15:07:41.670Z,12.27
2023-04-09T15:10:08.791Z,11.40
2023-04-09T15:12:35.273Z,11.73
2023-04-09T15:15:05.570Z,13.00
2023-04-09T15:17:32.478Z,13.95
2023-04-09T15:19:59.052Z,13.93
2023-04-09T15:22:25.664Z,11.90
2023-04-09T15:24:53.906Z,11.77
2023-04-09T15:27:20.487Z,12.60
2023-04-09T15:29:47.086Z,11.70
2023-04-09T15:32:13.683Z,12.82
2023-04-09T15:34:40.312Z,12.00
2023-04-09T15:37:06.768Z,11.90
2023-04-09T15:39:33.261Z,12.43
2023-04-09T15:41:59.831Z,12.80
2023-04-09T15:44:26.315Z,15.88
2023-04-09T15:46:52.880Z,12.57
2023-04-09T15:49:19.763Z,11.95
2023-04-09T15:51:46.520Z,11.48
2023-04-09T15:54:12.980Z,12.25
2023-04-09T15:56:40.280Z,13.50
2023-04-09T15:59:08.283Z,15.02
2023-04-09T16:01:36.264Z,18.95
2023-04-09T16:04:04.563Z,20.25
2023-04-09T16:06:31.390Z,20.35
2023-04-09T16:08:57.886Z,20.52
2023-04-09T16:11:24.600Z,21.90
2023-04-09T16:13:51.080Z,20.52
2023-04-09T16:16:17.866Z,20.42
2023-04-09T16:18:44.455Z,19.75
2023-04-09T16:21:11.193Z,20.42
2023-04-09T16:23:38.460Z,21.25
2023-04-09T16:26:05.378Z,20.08
2023-04-09T16:28:31.944Z,19.77
2023-04-09T16:30:59.440Z,19.50
2023-04-09T16:33:26.222Z,20.55
2023-04-09T16:35:52.869Z,18.38
2023-04-09T16:38:19.454Z,18.20
2023-04-09T16:40:45.980Z,18.13
2023-04-09T16:43:12.430Z,18.40
2023-04-09T16:45:38.898Z,18.58
2023-04-09T16:48:10.784Z,17.25
2023-04-09T16:50:38.309Z,17.27
2023-04-09T16:53:04.848Z,16.67
2023-04-09T16:55:31.507Z,17.42
2023-04-09T16:57:58.822Z,17.20
2023-04-09T17:00:25.603Z,15.95
2023-04-09T17:02:52.416Z,16.42
2023-04-09T17:05:19.080Z,15.10
2023-04-09T17:07:45.561Z,13.60
2023-04-09T17:10:12.177Z,14.55
2023-04-09T17:12:38.882Z,13.18
2023-04-09T17:15:05.758Z,12.88
2023-04-09T17:17:33.336Z,14.18
2023-04-09T17:20:01.545Z,12.82
2023-04-09T17:22:28.014Z,14.05
2023-04-09T17:24:54.511Z,13.23
2023-04-09T17:27:20.973Z,13.63
2023-04-09T17:29:47.515Z,13.25
2023-04-09T17:32:13.988Z,13.48
2023-04-09T17:34:40.535Z,13.95
2023-04-09T17:37:07.286Z,14.70
2023-04-09T17:39:33.753Z,14.88
2023-04-09T17:42:01.621Z,14.10
2023-04-09T17:44:28.121Z,16.45
2023-04-09T17:46:54.709Z,16.75
2023-04-09T17:49:22.415Z,16.42
2023-04-09T17:51:49.006Z,17.67
2023-04-09T17:54:15.574Z,17.13
2023-04-09T17:56:42.088Z,17.00
2023-04-09T17:59:08.596Z,17.55
2023-04-09T18:01:35.273Z,17.08
2023-04-09T18:04:02.148Z,19.15
2023-04-09T18:06:29.213Z,19.58
2023-04-09T18:08:55.749Z,18.73
2023-04-09T18:11:23.574Z,18.48
2023-04-09T18:13:50.964Z,19.52
2023-04-09T18:16:19.469Z,20.98
2023-04-09T18:18:46.293Z,19.10
2023-04-09T18:21:12.800Z,19.73
2023-04-09T18:23:40.386Z,19.77
2023-04-09T18:26:07.913Z,19.63
2023-04-09T18:28:35.142Z,19.75
2023-04-09T18:31:02.051Z,18.98
2023-04-09T18:33:28.706Z,19.30
2023-04-09T18:35:55.299Z,18.45
2023-04-09T18:38:22.019Z,19.50
2023-04-09T18:40:48.552Z,19.13
2023-04-09T18:43:15.455Z,19.60
2023-04-09T18:45:42.003Z,20.05
2023-04-09T18:48:08.947Z,20.25
2023-04-09T18:50:36.117Z,20.17
2023-04-09T18:53:03.649Z,19.45
2023-04-09T18:55:30.728Z,19.85
2023-04-09T18:57:57.525Z,20.77
2023-04-09T19:00:24.175Z,20.23
2023-04-09T19:02:50.875Z,20.38
2023-04-09T19:05:17.598Z,20.13
2023-04-09T19:07:44.067Z,21.23
2023-04-09T19:10:10.868Z,21.40
2023-04-09T19:12:37.802Z,21.35
2023-04-09T19:15:04.958Z,22.60
2023-04-09T19:17:32.230Z,23.35
2023-04-09T19:19:58.737Z,23.20
2023-04-09T19:22:25.337Z,23.85
2023-04-09T19:24:51.851Z,24.95
2023-04-09T19:27:19.414Z,26.13
2023-04-09T19:29:47.145Z,26.08
2023-04-09T19:32:13.838Z,26.40
2023-04-09T19:34:40.409Z,25.83
2023-04-09T19:37:07.368Z,27.77
2023-04-09T19:39:34.109Z,25.40
2023-04-09T19:42:00.661Z,27.45
2023-04-09T19:44:27.105Z,26.92
2023-04-09T19:46:53.622Z,26.63
2023-04-09T19:49:20.421Z,24.63
2023-04-09T19:51:46.972Z,25.80
2023-04-09T19:54:15.119Z,25.55
2023-04-09T19:56:42.475Z,26.13
2023-04-09T19:59:08.961Z,25.40
2023-04-09T20:01:36.046Z,26.48
2023-04-09T20:04:02.812Z,27.27
2023-04-09T20:06:30.716Z,26.48
2023-04-09T20:08:57.296Z,26.85
2023-04-09T20:11:23.777Z,28.00
2023-04-09T20:13:50.352Z,28.00
2023-04-09T20:16:17.045Z,29.05
2023-04-09T20:18:43.575Z,27.85
2023-04-09T20:21:14.064Z,27.67
2023-04-09T20:23:40.696Z,26.30
2023-04-09T20:26:11.349Z,27.05
2023-04-09T20:28:37.886Z,27.25
2023-04-09T20:31:04.753Z,27.52
2023-04-09T20:33:32.079Z,28.05
2023-04-09T20:35:59.061Z,26.50
2023-04-09T20:38:25.600Z,27.02
2023-04-09T20:40:52.775Z,28.33
2023-04-09T20:43:20.462Z,27.10
2023-04-09T20:45:47.342Z,26.98
2023-04-09T20:48:14.842Z,27.65
2023-04-09T20:50:41.352Z,26.90
2023-04-09T20:53:08.054Z,26.42
2023-04-09T20:55:35.651Z,26.45
2023-04-09T20:58:04.241Z,27.10
2023-04-09T21:00:30.766Z,29.17
2023-04-09T21:02:57.455Z,28.58
2023-04-09T21:05:24.481Z,27.55
2023-04-09T21:07:52.588Z,26.80
2023-04-09T21:10:19.380Z,28.15
2023-04-09T21:12:45.920Z,28.13
2023-04-09T21:15:12.398Z,27.45
2023-04-09T21:17:38.895Z,27.60
2023-04-09T21:20:06.217Z,27.48
2023-04-09T21:22:34.412Z,28.95
2023-04-09T21:25:00.981Z,29.67
2023-04-09T21:27:27.561Z,29.27
2023-04-09T21:29:54.543Z,31.10
2023-04-09T21:32:21.166Z,29.50
2023-04-09T21:34:47.636Z,30.75
2023-04-09T21:37:14.084Z,31.63
2023-04-09T21:39:40.598Z,30.63
2023-04-09T21:42:08.719Z,32.70
2023-04-09T21:44:35.323Z,32.13
2023-04-09T21:47:01.879Z,32.10
2023-04-09T21:49:28.377Z,33.35
2023-04-09T21:51:55.725Z,33.45
2023-04-09T21:54:22.285Z,33.58
2023-04-09T21:56:48.795Z,33.17
2023-04-09T21:59:15.465Z,33.97
2023-04-09T22:01:42.151Z,33.05
2023-04-09T22:04:08.882Z,33.35
2023-04-09T22:06:35.426Z,33.58
2023-04-09T22:09:02.473Z,34.25
2023-04-09T22:11:29.234Z,34.67
2023-04-09T22:13:57.509Z,34.13
2023-04-09T22:16:24.985Z,33.80
2023-04-09T22:18:52.577Z,34.70
2023-04-09T22:21:19.298Z,35.15
2023-04-09T22:23:45.847Z,33.97
2023-04-09T22:26:12.344Z,33.33
2023-04-09T22:28:39.244Z,33.72
2023-04-09T22:31:06.420Z,33.33
2023-04-09T22:33:32.965Z,34.65
2023-04-09T22:35:59.716Z,33.88
2023-04-09T22:38:26.509Z,33.97
2023-04-09T22:40:53.277Z,32.97
2023-04-09T22:43:19.789Z,32.85
2023-04-09T22:45:54.087Z,31.20
2023-04-09T22:48:21.939Z,30.77
2023-04-09T22:50:49.408Z,30.73
2023-04-09T22:53:19.909Z,31.73
2023-04-09T22:55:47.530Z,28.48
2023-04-09T22:58:14.384Z,29.00
2023-04-09T23:00:41.108Z,26.83
2023-04-09T23:03:07.853Z,26.55
2023-04-09T23:05:34.520Z,25.67
2023-04-09T23:08:01.062Z,25.55
2023-04-09T23:10:27.611Z,24.77
2023-04-09T23:12:54.054Z,26.20
2023-04-09T23:15:20.613Z,24.92
2023-04-09T23:17:47.214Z,23.48
2023-04-09T23:20:14.916Z,23.92
2023-04-09T23:22:41.982Z,23.48
2023-04-09T23:25:08.884Z,23.23
2023-04-09T23:27:35.464Z,23.27
2023-04-09T23:30:01.958Z,23.63
2023-04-09T23:32:28.525Z,23.88
2023-04-09T23:34:57.161Z,22.48
2023-04-09T23:37:23.635Z,24.13
2023-04-09T23:39:50.356Z,24.17
2023-04-09T23:42:16.821Z,24.58
2023-04-09T23:44:43.999Z,23.90
2023-04-09T23:47:11.122Z,22.75
2023-04-09T23:49:38.092Z,24.30
2023-04-09T23:52:04.915Z,22.80
2023-04-09T23:54:32.623Z,22.20
2023-04-09T23:56:59.649Z,24.10
2023-04-09T23:59:26.271Z,22.83
